createdAt,value
2018-12-15T00:00:14.926Z,15.07
2018-12-15T00:02:17.519Z,15.83
2018-12-15T00:04:20.148Z,14.67
2018-12-15T00:06:22.728Z,14.47
2018-12-15T00:08:25.385Z,14.33
2018-12-15T00:10:28.498Z,14.63
2018-12-15T00:12:31.159Z,14.93
2018-12-15T00:14:33.768Z,15.60
2018-12-15T00:16:36.345Z,15.83
2018-12-15T00:18:38.920Z,15.50
2018-12-15T00:20:41.555Z,13.93
2018-12-15T00:22:44.131Z,14.97
2018-12-15T00:24:46.759Z,14.93
2018-12-15T00:26:49.357Z,15.03
2018-12-15T00:28:51.998Z,14.33
2018-12-15T00:30:54.567Z,14.63
2018-12-15T00:32:57.819Z,14.07
2018-12-15T00:35:00.434Z,14.37
2018-12-15T00:37:03.013Z,13.57
2018-12-15T00:39:06.727Z,13.90
2018-12-15T00:41:09.325Z,14.07
2018-12-15T00:43:11.946Z,16.03
2018-12-15T00:45:14.589Z,14.73
2018-12-15T00:47:17.918Z,14.80
2018-12-15T00:49:20.515Z,15.10
2018-12-15T00:51:23.104Z,13.60
2018-12-15T00:53:25.726Z,15.00
2018-12-15T00:55:28.333Z,15.70
2018-12-15T00:57:30.935Z,14.77
2018-12-15T00:59:33.558Z,13.70
2018-12-15T01:01:36.160Z,15.10
2018-12-15T01:03:39.790Z,14.47
2018-12-15T01:05:42.407Z,14.63
2018-12-15T01:07:45.002Z,13.33
2018-12-15T01:09:47.643Z,15.00
2018-12-15T01:11:50.214Z,16.90
2018-12-15T01:13:52.929Z,16.07
2018-12-15T01:15:55.619Z,13.43
2018-12-15T01:17:58.214Z,14.50
2018-12-15T01:20:00.851Z,13.70
2018-12-15T01:22:03.443Z,15.90
2018-12-15T01:24:06.013Z,14.30
2018-12-15T01:26:08.683Z,14.90
2018-12-15T01:28:11.300Z,15.47
2018-12-15T01:30:14.050Z,15.57
2018-12-15T01:32:16.670Z,13.80
2018-12-15T01:34:19.429Z,15.63
2018-12-15T01:36:22.052Z,17.07
2018-12-15T01:38:24.650Z,15.50
2018-12-15T01:40:27.310Z,13.90
2018-12-15T01:42:30.605Z,15.30
2018-12-15T01:44:33.210Z,15.93
2018-12-15T01:46:35.815Z,14.33
2018-12-15T01:48:38.394Z,14.20
2018-12-15T01:50:41.006Z,15.43
2018-12-15T01:52:43.604Z,14.37
2018-12-15T01:54:46.246Z,16.00
2018-12-15T01:56:48.818Z,14.13
2018-12-15T01:58:51.398Z,13.70
2018-12-15T02:00:54.895Z,15.10
2018-12-15T02:02:57.879Z,14.97
2018-12-15T02:05:00.480Z,14.63
2018-12-15T02:07:03.228Z,13.90
2018-12-15T02:09:06.725Z,15.80
2018-12-15T02:11:10.123Z,15.30
2018-12-15T02:13:12.720Z,15.43
2018-12-15T02:15:15.339Z,14.40
2018-12-15T02:17:17.913Z,15.90
2018-12-15T02:19:20.522Z,14.63
2018-12-15T02:21:23.133Z,16.13
2018-12-15T02:23:25.836Z,15.33
2018-12-15T02:25:28.904Z,15.17
2018-12-15T02:27:31.540Z,16.20
2018-12-15T02:29:34.166Z,15.37
2018-12-15T02:31:36.791Z,14.03
2018-12-15T02:33:40.272Z,14.60
2018-12-15T02:35:42.905Z,15.73
2018-12-15T02:37:45.528Z,14.33
2018-12-15T02:39:48.138Z,16.13
2018-12-15T02:41:50.708Z,14.57
2018-12-15T02:43:53.329Z,15.10
2018-12-15T02:45:55.959Z,16.33
2018-12-15T02:47:58.578Z,17.13
2018-12-15T02:50:01.190Z,14.77
2018-12-15T02:52:03.983Z,15.07
2018-12-15T02:54:06.602Z,14.43
2018-12-15T02:56:09.518Z,14.00
2018-12-15T02:58:12.118Z,16.30
2018-12-15T03:00:14.768Z,14.80
2018-12-15T03:02:17.369Z,16.57
2018-12-15T03:04:20.005Z,15.30
2018-12-15T03:06:22.619Z,14.53
2018-12-15T03:08:25.257Z,16.23
2018-12-15T03:10:27.906Z,15.57
2018-12-15T03:12:30.514Z,14.90
2018-12-15T03:14:33.191Z,14.70
2018-12-15T03:16:35.875Z,13.83
2018-12-15T03:18:38.467Z,13.50
2018-12-15T03:20:46.263Z,12.63
2018-12-15T03:22:48.847Z,14.10
2018-12-15T03:24:51.422Z,13.13
2018-12-15T03:26:54.076Z,13.60
2018-12-15T03:28:56.690Z,13.30
2018-12-15T03:30:59.332Z,12.87
2018-12-15T03:33:01.900Z,13.17
2018-12-15T03:35:04.562Z,12.60
2018-12-15T03:37:07.179Z,14.20
2018-12-15T03:39:09.806Z,13.47
2018-12-15T03:41:12.456Z,12.87
2018-12-15T03:43:15.081Z,14.13
2018-12-15T03:45:17.664Z,13.63
2018-12-15T03:47:20.280Z,12.43
2018-12-15T03:49:23.637Z,12.23
2018-12-15T03:51:26.313Z,13.77
2018-12-15T03:53:28.919Z,11.67
2018-12-15T03:55:31.554Z,12.60
2018-12-15T03:57:34.175Z,14.23
2018-12-15T03:59:36.955Z,12.43
2018-12-15T04:01:39.566Z,13.60
2018-12-15T04:03:42.165Z,13.40
2018-12-15T04:05:44.764Z,12.20
2018-12-15T04:07:47.972Z,13.20
2018-12-15T04:09:50.563Z,13.87
2018-12-15T04:11:53.381Z,12.27
2018-12-15T04:13:55.955Z,12.53
2018-12-15T04:15:58.625Z,14.13
2018-12-15T04:18:03.836Z,13.20
2018-12-15T04:20:06.109Z,12.97
2018-12-15T04:22:24.771Z,13.10
2018-12-15T04:24:27.355Z,12.40
2018-12-15T04:26:29.971Z,11.43
2018-12-15T04:28:32.590Z,13.50
2018-12-15T04:30:35.162Z,13.33
2018-12-15T04:32:44.944Z,12.60
2018-12-15T04:34:42.535Z,13.00
2018-12-15T04:36:45.227Z,12.20
2018-12-15T04:38:48.529Z,14.67
2018-12-15T04:40:51.166Z,11.80
2018-12-15T04:42:53.813Z,12.50
2018-12-15T04:44:56.748Z,12.20
2018-12-15T04:46:59.656Z,13.60
2018-12-15T04:49:02.229Z,12.93
2018-12-15T04:51:04.833Z,15.23
2018-12-15T04:53:07.456Z,13.77
2018-12-15T04:55:10.030Z,13.07
2018-12-15T04:57:12.664Z,12.70
2018-12-15T04:59:15.630Z,12.87
2018-12-15T05:01:18.288Z,11.57
2018-12-15T05:03:22.832Z,11.70
2018-12-15T05:05:25.809Z,14.10
2018-12-15T05:07:28.436Z,12.73
2018-12-15T05:09:31.061Z,12.50
2018-12-15T05:11:33.719Z,10.60
2018-12-15T05:13:36.849Z,10.57
2018-12-15T05:15:39.445Z,11.30
2018-12-15T05:17:42.134Z,11.80
2018-12-15T05:19:44.743Z,12.07
2018-12-15T05:21:47.372Z,12.13
2018-12-15T05:23:49.951Z,11.70
2018-12-15T05:25:52.545Z,12.20
2018-12-15T05:27:55.176Z,11.90
2018-12-15T05:29:57.759Z,11.97
2018-12-15T05:32:00.383Z,10.90
2018-12-15T05:34:03.025Z,11.33
2018-12-15T05:36:05.652Z,11.57
2018-12-15T05:38:08.319Z,11.37
2018-12-15T05:40:10.933Z,11.50
2018-12-15T05:42:13.581Z,10.00
2018-12-15T05:44:16.151Z,11.67
2018-12-15T05:46:18.794Z,11.40
2018-12-15T05:48:25.146Z,11.57
2018-12-15T05:50:26.616Z,11.50
2018-12-15T05:52:29.239Z,11.60
2018-12-15T05:54:31.864Z,12.00
2018-12-15T05:56:34.440Z,11.77
2018-12-15T05:58:37.635Z,11.70
2018-12-15T06:00:40.230Z,12.83
2018-12-15T06:02:42.961Z,13.00
2018-12-15T06:04:45.546Z,10.33
2018-12-15T06:06:48.159Z,11.03
2018-12-15T06:08:50.816Z,12.00
2018-12-15T06:10:53.392Z,12.03
2018-12-15T06:12:56.080Z,11.23
2018-12-15T06:14:58.657Z,10.70
2018-12-15T06:17:01.798Z,11.00
2018-12-15T06:19:04.408Z,12.30
2018-12-15T06:21:06.995Z,12.10
2018-12-15T06:23:09.608Z,12.60
2018-12-15T06:25:12.933Z,11.60
2018-12-15T06:27:15.570Z,10.30
2018-12-15T06:29:18.172Z,10.97
2018-12-15T06:31:20.783Z,10.53
2018-12-15T06:33:23.407Z,11.43
2018-12-15T06:35:26.016Z,13.13
2018-12-15T06:37:28.658Z,11.93
2018-12-15T06:39:31.268Z,10.70
2018-12-15T06:41:33.975Z,10.67
2018-12-15T06:43:37.005Z,11.53
2018-12-15T06:45:39.597Z,11.27
2018-12-15T06:47:42.279Z,10.90
2018-12-15T06:49:44.879Z,12.60
2018-12-15T06:51:47.539Z,10.73
2018-12-15T06:53:50.201Z,11.47
2018-12-15T06:55:52.817Z,10.73
2018-12-15T06:57:56.461Z,10.93
2018-12-15T06:59:59.085Z,10.73
2018-12-15T07:02:02.683Z,10.80
2018-12-15T07:04:05.601Z,11.70
2018-12-15T07:06:08.371Z,11.50
2018-12-15T07:08:11.125Z,11.03
2018-12-15T07:10:13.758Z,10.33
2018-12-15T07:12:16.705Z,10.53
2018-12-15T07:14:19.403Z,10.17
2018-12-15T07:16:21.966Z,10.20
2018-12-15T07:18:25.574Z,10.23
2018-12-15T07:20:28.213Z,10.57
2018-12-15T07:22:30.974Z,12.80
2018-12-15T07:24:33.607Z,11.17
2018-12-15T07:26:36.189Z,11.40
2018-12-15T07:28:38.815Z,10.50
2018-12-15T07:30:42.096Z,19.80
2018-12-15T07:32:44.748Z,13.73
2018-12-15T07:34:47.354Z,19.53
2018-12-15T07:36:50.590Z,17.87
2018-12-15T07:38:53.471Z,14.10
2018-12-15T07:40:56.316Z,11.60
2018-12-15T07:42:58.955Z,12.20
2018-12-15T07:45:01.530Z,11.63
2018-12-15T07:47:04.153Z,11.67
2018-12-15T07:49:06.934Z,11.50
2018-12-15T07:51:09.524Z,12.73
2018-12-15T07:53:12.290Z,12.37
2018-12-15T07:55:14.897Z,12.20
2018-12-15T07:57:17.474Z,11.03
2018-12-15T07:59:20.179Z,11.80
2018-12-15T08:01:22.753Z,10.43
2018-12-15T08:03:25.389Z,11.63
2018-12-15T08:05:27.997Z,11.33
2018-12-15T08:07:30.689Z,10.97
2018-12-15T08:09:35.204Z,10.37
2018-12-15T08:14:18.082Z,10.43
2018-12-15T08:16:20.695Z,11.37
2018-12-15T08:18:23.469Z,10.40
2018-12-15T08:20:26.040Z,10.80
2018-12-15T08:22:28.743Z,10.53
2018-12-15T08:24:31.390Z,11.10
2018-12-15T08:26:34.991Z,12.13
2018-12-15T08:28:41.347Z,11.53
2018-12-15T08:30:44.447Z,13.47
2018-12-15T08:32:47.078Z,11.30
2018-12-15T08:34:51.897Z,11.83
2018-12-15T08:36:54.510Z,12.07
2018-12-15T08:38:57.136Z,13.20
2018-12-15T08:40:59.778Z,13.47
2018-12-15T08:43:02.699Z,11.20
2018-12-15T08:45:05.823Z,11.50
2018-12-15T08:47:08.569Z,10.00
2018-12-15T08:49:11.193Z,10.60
2018-12-15T08:51:14.025Z,12.93
2018-12-15T08:53:16.662Z,11.30
2018-12-15T08:55:19.443Z,12.17
2018-12-15T08:57:25.224Z,12.53
2018-12-15T08:59:27.863Z,11.30
2018-12-15T09:01:30.504Z,12.90
2018-12-15T09:03:33.215Z,11.83
2018-12-15T09:05:36.063Z,11.80
2018-12-15T09:07:38.678Z,8.40
2018-12-15T09:09:41.360Z,12.93
2018-12-15T09:11:43.966Z,12.63
2018-12-15T09:13:46.677Z,9.53
2018-12-15T09:15:49.295Z,11.90
2018-12-15T09:17:51.881Z,11.50
2018-12-15T09:19:54.609Z,12.00
2018-12-15T09:21:57.196Z,10.57
2018-12-15T09:23:59.916Z,13.90
2018-12-15T09:26:02.537Z,10.73
2018-12-15T09:28:05.127Z,12.57
2018-12-15T09:30:07.862Z,13.77
2018-12-15T09:32:10.449Z,12.67
2018-12-15T09:34:13.067Z,14.63
2018-12-15T09:36:15.757Z,11.90
2018-12-15T09:38:19.015Z,13.20
2018-12-15T09:40:21.717Z,12.70
2018-12-15T09:42:24.336Z,12.80
2018-12-15T09:44:28.623Z,12.23
2018-12-15T09:46:31.206Z,12.10
2018-12-15T09:48:33.822Z,14.27
2018-12-15T09:50:36.549Z,14.63
2018-12-15T09:52:39.154Z,11.67
2018-12-15T09:54:41.781Z,13.80
2018-12-15T09:56:44.365Z,13.60
2018-12-15T09:58:46.961Z,13.50
2018-12-15T10:00:49.597Z,14.57
2018-12-15T10:02:52.177Z,15.17
2018-12-15T10:04:54.852Z,14.40
2018-12-15T10:06:57.483Z,13.87
2018-12-15T10:09:01.513Z,14.50
2018-12-15T10:11:05.617Z,17.30
2018-12-15T10:13:08.198Z,14.50
2018-12-15T10:15:11.788Z,14.20
2018-12-15T10:17:14.378Z,14.47
2018-12-15T10:19:16.978Z,15.40
2018-12-15T10:21:19.634Z,19.40
2018-12-15T10:23:22.254Z,17.03
2018-12-15T10:25:24.877Z,14.63
2018-12-15T10:27:27.547Z,14.30
2018-12-15T10:29:35.761Z,10.33
2018-12-15T10:31:43.999Z,15.07
2018-12-15T10:33:46.654Z,13.50
2018-12-15T10:35:49.309Z,12.97
2018-12-15T10:37:51.936Z,14.83
2018-12-15T10:39:56.005Z,15.67
2018-12-15T10:42:00.219Z,14.67
2018-12-15T10:44:02.994Z,14.93
2018-12-15T10:46:05.645Z,10.83
2018-12-15T10:48:08.265Z,11.73
2018-12-15T10:50:11.238Z,11.97
2018-12-15T10:52:14.371Z,14.87
2018-12-15T10:54:17.546Z,15.20
2018-12-15T10:56:20.439Z,13.70
2018-12-15T10:58:23.064Z,14.17
2018-12-15T11:00:27.848Z,13.87
2018-12-15T11:02:30.466Z,14.40
2018-12-15T11:04:33.142Z,13.00
2018-12-15T11:06:36.025Z,13.60
2018-12-15T11:08:38.626Z,12.73
2018-12-15T11:10:41.370Z,14.40
2018-12-15T11:12:43.969Z,14.27
2018-12-15T11:14:46.555Z,13.87
2018-12-15T11:16:49.205Z,12.73
2018-12-15T11:18:51.806Z,11.57
2018-12-15T11:20:54.452Z,14.73
2018-12-15T11:22:57.028Z,16.30
2018-12-15T11:24:59.674Z,15.83
2018-12-15T11:27:02.331Z,13.60
2018-12-15T11:29:04.944Z,12.80
2018-12-15T11:31:07.605Z,14.43
2018-12-15T11:33:10.339Z,16.70
2018-12-15T11:35:13.266Z,14.70
2018-12-15T11:37:15.913Z,15.13
2018-12-15T11:39:18.552Z,14.87
2018-12-15T11:41:21.226Z,15.90
2018-12-15T11:43:23.903Z,16.10
2018-12-15T11:45:26.545Z,11.20
2018-12-15T11:47:29.173Z,11.87
2018-12-15T11:49:31.809Z,11.87
2018-12-15T11:51:34.426Z,12.20
2018-12-15T11:53:37.063Z,15.03
2018-12-15T11:55:39.753Z,15.77
2018-12-15T11:57:42.340Z,10.77
2018-12-15T11:59:44.920Z,15.80
2018-12-15T12:01:47.609Z,14.30
2018-12-15T12:03:50.239Z,15.27
2018-12-15T12:05:53.046Z,15.73
2018-12-15T12:07:55.652Z,14.73
2018-12-15T12:09:58.248Z,15.57
2018-12-15T12:12:00.856Z,16.10
2018-12-15T12:14:03.419Z,15.70
2018-12-15T12:16:06.921Z,16.13
2018-12-15T12:18:09.568Z,13.67
2018-12-15T12:20:12.174Z,17.17
2018-12-15T12:22:14.872Z,15.37
2018-12-15T12:24:17.444Z,16.80
2018-12-15T12:26:20.066Z,14.97
2018-12-15T12:28:22.875Z,14.90
2018-12-15T12:30:25.570Z,16.70
2018-12-15T12:32:28.234Z,15.73
2018-12-15T12:34:30.825Z,17.43
2018-12-15T12:36:33.485Z,15.87
2018-12-15T12:38:36.046Z,16.10
2018-12-15T12:40:38.631Z,16.00
2018-12-15T12:42:41.276Z,16.90
2018-12-15T12:44:43.870Z,15.60
2018-12-15T12:46:46.512Z,14.83
2018-12-15T12:48:49.744Z,17.00
2018-12-15T12:50:52.493Z,17.60
2018-12-15T12:52:56.253Z,19.47
2018-12-15T12:54:58.846Z,17.37
2018-12-15T12:57:01.473Z,16.43
2018-12-15T12:59:04.909Z,17.27
2018-12-15T13:01:08.085Z,15.67
2018-12-15T13:03:10.687Z,14.93
2018-12-15T13:05:13.298Z,18.07
2018-12-15T13:07:15.911Z,17.40
2018-12-15T13:09:18.557Z,16.03
2018-12-15T13:11:21.187Z,18.80
2018-12-15T13:13:23.815Z,19.10
2018-12-15T13:15:26.890Z,18.40
2018-12-15T13:17:29.527Z,17.97
2018-12-15T13:19:32.104Z,17.13
2018-12-15T13:21:34.711Z,17.17
2018-12-15T13:23:37.309Z,18.97
2018-12-15T13:25:39.907Z,19.13
2018-12-15T13:27:44.323Z,17.10
2018-12-15T13:29:46.959Z,18.27
2018-12-15T13:31:49.601Z,20.37
2018-12-15T13:33:52.190Z,20.00
2018-12-15T13:35:54.824Z,18.57
2018-12-15T13:37:57.468Z,19.83
2018-12-15T13:40:00.063Z,18.43
2018-12-15T13:42:02.686Z,20.80
2018-12-15T13:44:05.347Z,19.83
2018-12-15T13:46:07.957Z,18.73
2018-12-15T13:48:10.620Z,19.80
2018-12-15T13:50:13.219Z,19.77
2018-12-15T13:52:15.953Z,18.90
2018-12-15T13:54:19.241Z,20.20
2018-12-15T13:56:21.999Z,21.73
2018-12-15T13:58:24.646Z,17.20
2018-12-15T14:00:27.284Z,18.40
2018-12-15T14:02:30.566Z,21.47
2018-12-15T14:04:33.204Z,20.40
2018-12-15T14:06:35.873Z,18.93
2018-12-15T14:08:38.716Z,18.77
2018-12-15T14:10:41.355Z,13.97
2018-12-15T14:12:45.107Z,20.70
2018-12-15T14:14:47.995Z,21.20
2018-12-15T14:16:50.786Z,19.40
2018-12-15T14:18:53.411Z,21.13
2018-12-15T14:21:16.152Z,18.73
2018-12-15T14:23:18.801Z,20.87
2018-12-15T14:25:21.548Z,19.60
2018-12-15T14:27:25.229Z,17.73
2018-12-15T14:29:27.893Z,19.70
2018-12-15T14:31:31.948Z,18.83
2018-12-15T14:33:35.499Z,22.77
2018-12-15T14:35:38.317Z,19.43
2018-12-15T14:37:41.427Z,20.53
2018-12-15T14:39:44.825Z,19.60
2018-12-15T14:41:48.361Z,21.97
2018-12-15T14:43:51.076Z,19.67
2018-12-15T14:45:54.576Z,20.33
2018-12-15T14:47:58.095Z,19.07
2018-12-15T14:50:00.962Z,19.07
2018-12-15T14:52:03.654Z,20.70
2018-12-15T14:54:06.402Z,19.27
2018-12-15T14:56:10.706Z,17.57
2018-12-15T14:58:13.585Z,18.80
2018-12-15T15:00:16.279Z,18.07
2018-12-15T15:02:19.314Z,18.13
2018-12-15T15:04:21.924Z,18.17
2018-12-15T15:06:25.874Z,18.43
2018-12-15T15:08:30.151Z,18.43
2018-12-15T15:10:32.763Z,17.60
2018-12-15T15:12:35.436Z,17.27
2018-12-15T15:14:38.111Z,19.10
2018-12-15T15:16:41.013Z,17.20
2018-12-15T15:18:46.066Z,18.40
2018-12-15T15:20:48.875Z,12.37
2018-12-15T15:22:51.628Z,18.80
2018-12-15T15:24:55.406Z,17.90
2018-12-15T15:26:59.092Z,19.43
2018-12-15T15:29:02.514Z,17.30
2018-12-15T15:31:06.325Z,16.73
2018-12-15T15:33:09.018Z,17.63
2018-12-15T15:35:11.750Z,17.97
2018-12-15T15:37:14.395Z,17.53
2018-12-15T15:39:17.142Z,17.23
2018-12-15T15:41:19.734Z,17.63
2018-12-15T15:43:22.391Z,18.33
2018-12-15T15:45:25.079Z,17.33
2018-12-15T15:47:27.872Z,17.53
2018-12-15T15:49:31.001Z,19.20
2018-12-15T15:51:34.824Z,19.53
2018-12-15T15:53:39.744Z,16.57
2018-12-15T15:55:46.791Z,18.50
2018-12-15T15:57:51.448Z,18.40
2018-12-15T15:59:55.968Z,17.63
2018-12-15T16:02:00.395Z,16.77
2018-12-15T16:04:03.130Z,20.27
2018-12-15T16:06:05.721Z,18.87
2018-12-15T16:08:08.353Z,18.40
2018-12-15T16:10:11.338Z,18.07
2018-12-15T16:12:15.031Z,15.90
2018-12-15T16:14:17.867Z,17.70
2018-12-15T16:16:34.202Z,18.17
2018-12-15T16:18:38.301Z,18.30
2018-12-15T16:20:44.180Z,18.20
2018-12-15T16:22:46.770Z,18.20
2018-12-15T16:24:51.393Z,20.10
2018-12-15T16:26:54.018Z,17.90
2018-12-15T16:28:56.649Z,17.60
2018-12-15T16:30:59.227Z,18.53
2018-12-15T16:33:01.804Z,19.17
2018-12-15T16:35:06.059Z,20.30
2018-12-15T16:37:08.752Z,18.37
2018-12-15T16:39:11.419Z,17.43
2018-12-15T16:41:14.005Z,19.67
2018-12-15T16:43:16.579Z,19.43
2018-12-15T16:45:19.193Z,19.50
2018-12-15T16:47:21.832Z,17.63
2018-12-15T16:49:24.589Z,19.63
2018-12-15T16:51:27.212Z,18.40
2018-12-15T16:53:29.897Z,19.40
2018-12-15T16:55:32.537Z,18.40
2018-12-15T16:57:35.115Z,19.23
2018-12-15T16:59:37.718Z,18.83
2018-12-15T17:01:40.770Z,19.53
2018-12-15T17:03:43.869Z,20.83
2018-12-15T17:05:46.686Z,18.97
2018-12-15T17:07:49.493Z,17.80
2018-12-15T17:09:52.466Z,19.63
2018-12-15T17:11:55.082Z,21.17
2018-12-15T17:13:58.293Z,20.80
2018-12-15T17:16:00.921Z,19.73
2018-12-15T17:18:06.565Z,19.70
2018-12-15T17:20:11.370Z,18.57
2018-12-15T17:22:16.140Z,20.80
2018-12-15T17:24:19.054Z,20.63
2018-12-15T17:26:21.872Z,19.77
2018-12-15T17:28:24.689Z,19.67
2018-12-15T17:30:27.485Z,19.90
2018-12-15T17:32:30.132Z,21.23
2018-12-15T17:34:32.810Z,22.50
2018-12-15T17:36:35.410Z,22.03
2018-12-15T17:38:38.028Z,21.90
2018-12-15T17:40:40.822Z,23.40
2018-12-15T17:42:43.566Z,19.40
2018-12-15T17:44:47.068Z,19.00
2018-12-15T17:46:49.688Z,19.97
2018-12-15T17:48:52.312Z,19.20
2018-12-15T17:50:55.381Z,19.23
2018-12-15T17:53:00.183Z,18.93
2018-12-15T17:55:04.170Z,18.37
2018-12-15T17:57:06.922Z,18.70
2018-12-15T17:59:09.841Z,19.07
2018-12-15T18:01:12.736Z,19.00
2018-12-15T18:03:17.731Z,18.00
2018-12-15T18:05:20.397Z,19.13
2018-12-15T18:07:22.994Z,18.50
2018-12-15T18:09:25.789Z,18.77
2018-12-15T18:11:29.387Z,19.50
2018-12-15T18:13:32.296Z,19.40
2018-12-15T18:15:36.146Z,19.87
2018-12-15T18:17:39.223Z,18.13
2018-12-15T18:19:43.086Z,19.87
2018-12-15T18:21:46.083Z,19.03
2018-12-15T18:23:49.654Z,20.47
2018-12-15T18:25:52.302Z,19.93
2018-12-15T18:27:54.904Z,16.87
2018-12-15T18:29:57.614Z,19.60
2018-12-15T18:32:00.371Z,18.20
2018-12-15T18:34:02.994Z,18.63
2018-12-15T18:36:06.404Z,19.53
2018-12-15T18:38:09.051Z,18.40
2018-12-15T18:40:11.687Z,18.60
2018-12-15T18:42:15.222Z,18.57
2018-12-15T18:44:18.385Z,18.10
2018-12-15T18:46:21.008Z,18.77
2018-12-15T18:48:23.650Z,19.33
2018-12-15T18:50:26.265Z,18.83
2018-12-15T18:52:28.976Z,17.63
2018-12-15T18:54:31.641Z,19.17
2018-12-15T18:56:34.537Z,17.80
2018-12-15T18:58:37.739Z,19.60
2018-12-15T19:00:40.362Z,19.17
2018-12-15T19:02:43.528Z,20.88
2018-12-15T19:04:47.018Z,19.20
2018-12-15T19:06:49.656Z,19.70
2018-12-15T19:08:52.335Z,18.47
2018-12-15T19:10:55.103Z,19.80
2018-12-15T19:12:57.720Z,16.63
2018-12-15T19:15:00.841Z,17.73
2018-12-15T19:17:03.782Z,18.03
2018-12-15T19:19:06.679Z,18.00
2018-12-15T19:21:09.403Z,18.02
2018-12-15T19:23:12.220Z,18.35
2018-12-15T19:25:15.134Z,18.55
2018-12-15T19:27:18.122Z,18.30
2018-12-15T19:29:21.896Z,19.55
2018-12-15T19:31:25.281Z,18.60
2018-12-15T19:33:38.514Z,21.27
2018-12-15T19:35:42.152Z,21.70
2018-12-15T19:37:45.060Z,20.50
2018-12-15T19:39:48.457Z,22.13
2018-12-15T19:41:52.229Z,22.25
2018-12-15T19:43:55.378Z,24.65
2018-12-15T19:45:58.006Z,27.07
2018-12-15T19:48:00.935Z,20.72
2018-12-15T19:50:05.388Z,19.73
2018-12-15T19:52:08.020Z,20.37
2018-12-15T19:54:12.059Z,17.77
2018-12-15T19:56:16.961Z,19.77
2018-12-15T19:58:19.781Z,19.57
2018-12-15T20:00:22.849Z,20.35
2018-12-15T20:02:26.121Z,18.90
2018-12-15T20:04:29.056Z,18.40
2018-12-15T20:06:33.062Z,19.27
2018-12-15T20:08:36.399Z,20.45
2018-12-15T20:10:39.054Z,19.17
2018-12-15T20:12:42.737Z,18.67
2018-12-15T20:14:46.029Z,19.17
2018-12-15T20:16:49.993Z,19.65
2018-12-15T20:18:53.750Z,20.65
2018-12-15T20:20:56.388Z,21.00
2018-12-15T20:22:58.994Z,20.63
2018-12-15T20:25:02.250Z,19.40
2018-12-15T20:27:05.103Z,21.73
2018-12-15T20:29:08.588Z,18.83
2018-12-15T20:31:11.542Z,20.72
2018-12-15T20:33:14.247Z,19.77
2018-12-15T20:35:17.137Z,21.35
2018-12-15T20:37:19.886Z,18.27
2018-12-15T20:39:22.498Z,22.98
2018-12-15T20:41:25.269Z,19.70
2018-12-15T20:43:27.887Z,19.25
2018-12-15T20:45:30.486Z,20.37
2018-12-15T20:47:33.130Z,17.90
2018-12-15T20:49:36.217Z,19.67
2018-12-15T20:51:42.776Z,18.60
2018-12-15T20:53:44.166Z,19.20
2018-12-15T20:55:46.767Z,19.07
2018-12-15T20:57:49.402Z,19.02
2018-12-15T20:59:52.039Z,18.07
2018-12-15T21:01:54.652Z,18.57
2018-12-15T21:03:57.252Z,19.50
2018-12-15T21:06:00.041Z,19.77
2018-12-15T21:08:02.656Z,20.62
2018-12-15T21:10:06.573Z,18.65
2018-12-15T21:12:09.199Z,20.17
2018-12-15T21:14:11.766Z,18.77
2018-12-15T21:16:14.419Z,20.23
2018-12-15T21:18:17.643Z,19.10
2018-12-15T21:20:20.255Z,19.17
2018-12-15T21:22:22.934Z,18.00
2018-12-15T21:24:25.592Z,17.90
2018-12-15T21:26:28.238Z,20.00
2018-12-15T21:28:30.838Z,18.70
2018-12-15T21:30:33.416Z,21.27
2018-12-15T21:32:36.042Z,17.57
2018-12-15T21:34:38.635Z,19.87
2018-12-15T21:36:41.292Z,19.98
2018-12-15T21:38:43.916Z,19.40
2018-12-15T21:40:46.487Z,19.00
2018-12-15T21:42:49.134Z,19.57
2018-12-15T21:44:51.725Z,18.17
2018-12-15T21:46:54.360Z,19.43
2018-12-15T21:48:56.978Z,20.53
2018-12-15T21:50:59.589Z,20.27
2018-12-15T21:53:02.260Z,18.63
2018-12-15T21:55:05.092Z,19.10
2018-12-15T21:57:07.748Z,19.37
2018-12-15T21:59:10.456Z,18.85
2018-12-15T22:01:13.070Z,19.00
2018-12-15T22:03:15.779Z,18.87
2018-12-15T22:05:18.350Z,19.80
2018-12-15T22:07:20.949Z,19.43
2018-12-15T22:09:23.530Z,21.47
2018-12-15T22:11:26.152Z,20.57
2018-12-15T22:13:28.771Z,20.40
2018-12-15T22:15:31.347Z,19.97
2018-12-15T22:17:34.005Z,19.93
2018-12-15T22:19:36.652Z,19.92
2018-12-15T22:21:39.289Z,19.33
2018-12-15T22:23:41.970Z,19.10
2018-12-15T22:25:44.626Z,18.73
2018-12-15T22:27:47.276Z,18.45
2018-12-15T22:29:49.881Z,18.77
2018-12-15T22:31:52.522Z,19.43
2018-12-15T22:33:55.229Z,17.10
2018-12-15T22:35:57.839Z,18.25
2018-12-15T22:38:00.460Z,19.87
2018-12-15T22:40:03.374Z,16.37
2018-12-15T22:42:05.987Z,17.85
2018-12-15T22:44:08.641Z,18.87
2018-12-15T22:46:11.277Z,19.70
2018-12-15T22:48:13.910Z,18.47
2018-12-15T22:50:16.521Z,19.00
2018-12-15T22:52:19.159Z,17.60
2018-12-15T22:54:21.847Z,15.73
2018-12-15T22:56:25.395Z,17.67
2018-12-15T22:58:31.192Z,17.25
2018-12-15T23:00:36.302Z,16.70
2018-12-15T23:02:39.023Z,16.63
2018-12-15T23:04:44.518Z,16.30
2018-12-15T23:06:47.281Z,20.08
2018-12-15T23:08:51.044Z,17.52
2018-12-15T23:10:54.041Z,19.62
2018-12-15T23:12:57.270Z,19.55
2018-12-15T23:14:59.987Z,18.20
2018-12-15T23:17:02.710Z,17.37
2018-12-15T23:19:06.181Z,18.65
2018-12-15T23:21:08.977Z,18.07
2018-12-15T23:23:11.604Z,18.00
2018-12-15T23:25:14.216Z,18.57
2018-12-15T23:27:16.828Z,17.60
2018-12-15T23:29:19.481Z,18.30
2018-12-15T23:31:22.476Z,18.73
2018-12-15T23:33:25.623Z,17.13
2018-12-15T23:35:28.780Z,17.53
2018-12-15T23:37:31.646Z,17.67
2018-12-15T23:39:34.316Z,19.45
2018-12-15T23:41:37.435Z,19.40
2018-12-15T23:43:41.257Z,16.33
2018-12-15T23:45:43.880Z,17.98
2018-12-15T23:47:46.626Z,17.80
2018-12-15T23:49:49.311Z,18.33
2018-12-15T23:51:52.958Z,18.73
2018-12-15T23:53:56.512Z,17.90
2018-12-15T23:56:01.024Z,19.10
2018-12-15T23:58:04.081Z,18.33
